createdAt,value
2022-12-08T00:01:52.097Z,77.95
2022-12-08T00:05:12.842Z,77.29
2022-12-08T00:08:33.488Z,77.42
2022-12-08T00:11:36.440Z,76.53
2022-12-08T00:14:39.554Z,76.28
2022-12-08T00:17:41.431Z,76.55
2022-12-08T00:20:43.265Z,76.45
2022-12-08T00:23:45.073Z,76.22
2022-12-08T00:26:47.480Z,76.23
2022-12-08T00:29:49.310Z,76.65
2022-12-08T00:32:51.137Z,76.09
2022-12-08T00:35:53.073Z,76.12
2022-12-08T00:38:55.349Z,76.09
2022-12-08T00:42:12.167Z,75.90
2022-12-08T00:45:14.195Z,76.02
2022-12-08T00:48:16.062Z,76.11
2022-12-08T00:51:17.900Z,76.38
2022-12-08T00:54:20.715Z,75.99
2022-12-08T00:57:22.922Z,76.76
2022-12-08T01:00:24.768Z,76.58
2022-12-08T01:03:26.623Z,77.00
2022-12-08T01:06:28.478Z,77.20
2022-12-08T01:09:30.577Z,77.24
2022-12-08T01:12:32.431Z,77.36
2022-12-08T01:15:34.319Z,77.08
2022-12-08T01:18:36.910Z,77.40
2022-12-08T01:21:38.863Z,77.45
2022-12-08T01:24:40.696Z,77.78
2022-12-08T01:27:42.571Z,77.26
2022-12-08T01:30:44.468Z,77.00
2022-12-08T01:33:47.185Z,77.40
2022-12-08T01:36:49.144Z,77.35
2022-12-08T01:39:51.017Z,77.53
2022-12-08T01:42:52.914Z,77.30
2022-12-08T01:45:54.865Z,77.54
2022-12-08T01:49:10.102Z,78.33
2022-12-08T01:52:18.158Z,78.28
2022-12-08T01:55:28.930Z,78.99
2022-12-08T01:58:52.916Z,79.00
2022-12-08T02:01:55.007Z,78.36
2022-12-08T02:04:56.973Z,78.35
2022-12-08T02:08:01.398Z,79.51
2022-12-08T02:11:06.093Z,79.71
2022-12-08T02:14:10.959Z,79.66
2022-12-08T02:17:24.848Z,79.51
2022-12-08T02:20:56.806Z,79.52
2022-12-08T02:24:24.689Z,80.27
2022-12-08T02:27:29.614Z,80.60
2022-12-08T02:31:16.439Z,80.12
2022-12-08T02:34:30.433Z,80.16
2022-12-08T02:37:39.361Z,79.99
2022-12-08T02:41:06.245Z,80.43
2022-12-08T02:44:43.891Z,80.57
2022-12-08T02:47:45.804Z,80.58
2022-12-08T02:50:47.639Z,81.53
2022-12-08T02:53:49.624Z,81.86
2022-12-08T02:57:33.145Z,81.74
2022-12-08T03:00:49.356Z,82.20
2022-12-08T03:04:05.908Z,81.92
2022-12-08T03:07:13.461Z,82.52
2022-12-08T03:10:56.600Z,82.99
2022-12-08T03:14:02.585Z,83.20
2022-12-08T03:17:05.450Z,83.69
2022-12-08T03:20:14.159Z,83.60
2022-12-08T03:23:19.242Z,83.91
2022-12-08T03:26:34.360Z,84.20
2022-12-08T03:29:36.642Z,84.21
2022-12-08T03:33:05.168Z,83.76
2022-12-08T03:36:09.613Z,84.42
2022-12-08T03:39:11.578Z,84.51
2022-12-08T03:42:13.551Z,84.65
2022-12-08T03:45:15.381Z,85.13
2022-12-08T03:48:17.247Z,85.50
2022-12-08T03:51:19.854Z,85.61
2022-12-08T03:54:21.735Z,85.84
2022-12-08T03:57:23.618Z,86.03
2022-12-08T04:00:25.422Z,86.84
2022-12-08T04:03:27.404Z,86.38
2022-12-08T04:06:29.319Z,86.22
2022-12-08T04:09:31.763Z,86.31
2022-12-08T04:12:33.695Z,85.95
2022-12-08T04:15:35.595Z,86.56
2022-12-08T04:18:37.433Z,86.33
2022-12-08T04:21:39.275Z,85.97
2022-12-08T04:24:41.081Z,86.08
2022-12-08T04:27:42.923Z,86.46
2022-12-08T04:30:44.941Z,85.99
2022-12-08T04:33:46.810Z,86.15
2022-12-08T04:36:48.645Z,86.07
2022-12-08T04:39:50.538Z,85.92
2022-12-08T04:42:52.420Z,86.24
2022-12-08T04:45:54.240Z,86.06
2022-12-08T04:48:56.131Z,86.94
2022-12-08T04:51:57.977Z,86.90
2022-12-08T04:54:59.843Z,86.70
2022-12-08T04:58:01.661Z,86.77
2022-12-08T05:01:03.760Z,86.34
2022-12-08T05:04:05.658Z,86.62
2022-12-08T05:07:07.491Z,86.65
2022-12-08T05:10:09.504Z,86.32
2022-12-08T05:13:11.296Z,87.55
2022-12-08T05:16:15.462Z,87.28
2022-12-08T05:19:18.101Z,87.03
2022-12-08T05:22:20.039Z,87.53
2022-12-08T05:25:21.904Z,86.60
2022-12-08T05:28:41.939Z,87.41
2022-12-08T05:31:44.832Z,87.45
2022-12-08T05:34:46.764Z,86.91
2022-12-08T05:37:48.567Z,87.07
2022-12-08T05:40:50.442Z,86.62
2022-12-08T05:43:52.343Z,86.46
2022-12-08T05:46:54.195Z,87.42
2022-12-08T05:49:56.035Z,87.08
2022-12-08T05:52:57.913Z,87.21
2022-12-08T05:55:59.760Z,86.68
2022-12-08T05:59:01.656Z,87.44
2022-12-08T06:02:03.638Z,87.27
2022-12-08T06:05:05.936Z,86.90
2022-12-08T06:08:08.121Z,86.91
2022-12-08T06:11:10.358Z,87.11
2022-12-08T06:14:12.451Z,87.38
2022-12-08T06:17:14.386Z,87.47
2022-12-08T06:20:16.371Z,87.67
2022-12-08T06:23:18.158Z,87.92
2022-12-08T06:26:20.718Z,87.90
2022-12-08T06:29:22.514Z,88.34
2022-12-08T06:32:27.535Z,88.53
2022-12-08T06:35:29.681Z,88.33
2022-12-08T06:38:32.230Z,88.69
2022-12-08T06:41:54.010Z,88.41
2022-12-08T06:45:02.232Z,88.22
2022-12-08T06:48:04.240Z,87.78
2022-12-08T06:51:10.895Z,87.89
2022-12-08T06:54:12.773Z,87.69
2022-12-08T06:57:14.689Z,87.29
2022-12-08T07:00:18.168Z,87.47
2022-12-08T07:03:20.056Z,87.16
2022-12-08T07:06:24.001Z,87.47
2022-12-08T07:09:25.808Z,86.74
2022-12-08T07:12:27.769Z,87.00
2022-12-08T07:15:29.799Z,86.80
2022-12-08T07:18:31.653Z,86.58
2022-12-08T07:21:33.554Z,86.41
2022-12-08T07:24:35.377Z,86.54
2022-12-08T07:27:37.180Z,86.58
2022-12-08T07:30:39.745Z,86.81
2022-12-08T07:33:41.989Z,86.63
2022-12-08T07:36:43.784Z,86.24
2022-12-08T07:39:46.715Z,86.50
2022-12-08T07:42:48.819Z,86.51
2022-12-08T07:45:51.245Z,86.20
2022-12-08T07:48:54.764Z,85.65
2022-12-08T07:51:56.649Z,85.77
2022-12-08T07:54:58.504Z,85.50
2022-12-08T07:58:00.508Z,85.58
2022-12-08T08:01:02.698Z,85.31
2022-12-08T08:04:05.608Z,85.35
2022-12-08T08:07:07.586Z,85.25
2022-12-08T08:10:11.137Z,85.20
2022-12-08T08:13:13.822Z,85.01
2022-12-08T08:16:15.880Z,85.14
2022-12-08T08:19:19.198Z,84.33
2022-12-08T08:22:21.224Z,84.42
2022-12-08T08:25:23.262Z,84.17
2022-12-08T08:28:25.139Z,84.43
2022-12-08T08:31:36.135Z,83.98
2022-12-08T08:34:39.044Z,83.65
2022-12-08T08:37:45.568Z,83.31
2022-12-08T08:40:50.549Z,83.18
2022-12-08T08:43:52.406Z,82.95
2022-12-08T08:46:54.343Z,83.04
2022-12-08T08:49:58.259Z,83.02
2022-12-08T08:53:00.113Z,82.75
2022-12-08T08:56:03.024Z,82.84
2022-12-08T08:59:05.133Z,82.54
2022-12-08T09:02:07.186Z,82.76
2022-12-08T09:05:09.333Z,82.38
2022-12-08T09:08:11.357Z,82.64
2022-12-08T14:25:17.714Z,100.00
2022-12-08T14:28:20.020Z,100.00
2022-12-08T14:31:22.845Z,100.00
2022-12-08T14:34:25.170Z,99.79
2022-12-08T14:37:31.482Z,99.04
2022-12-08T14:40:44.339Z,97.88
2022-12-08T14:43:46.184Z,97.46
2022-12-08T14:47:09.373Z,97.00
2022-12-08T14:50:38.360Z,96.78
2022-12-08T14:53:53.171Z,96.28
2022-12-08T14:56:57.436Z,96.37
2022-12-08T15:00:08.259Z,96.30
2022-12-08T15:03:13.049Z,96.21
2022-12-08T15:06:15.964Z,96.03
2022-12-08T15:09:30.386Z,95.80
2022-12-08T15:12:33.464Z,95.61
2022-12-08T15:15:47.747Z,95.48
2022-12-08T15:19:24.371Z,95.47
2022-12-08T15:22:29.893Z,95.09
2022-12-08T15:25:32.251Z,95.20
2022-12-08T15:28:34.481Z,95.00
2022-12-08T15:31:36.441Z,94.62
2022-12-08T15:34:38.487Z,94.65
2022-12-08T15:37:40.811Z,94.29
2022-12-08T15:40:42.743Z,94.35
2022-12-08T15:43:44.645Z,94.37
2022-12-08T15:46:46.513Z,94.16
2022-12-08T15:49:49.998Z,94.18
2022-12-08T15:52:51.825Z,94.08
2022-12-08T15:59:21.390Z,94.37
2022-12-08T16:02:25.220Z,94.55
2022-12-08T16:05:44.480Z,94.36
2022-12-08T16:08:56.327Z,94.34
2022-12-08T16:16:07.469Z,94.59
2022-12-08T16:19:14.235Z,94.44
2022-12-08T16:26:16.269Z,94.24
2022-12-08T16:29:06.947Z,94.33
2022-12-08T16:32:08.876Z,94.64
2022-12-08T16:35:12.640Z,94.36
2022-12-08T16:38:18.845Z,94.53
2022-12-08T16:41:39.513Z,94.48
2022-12-08T16:44:42.256Z,94.53
2022-12-08T16:47:52.153Z,94.51
2022-12-08T16:50:54.381Z,94.55
2022-12-08T16:53:58.421Z,94.93
2022-12-08T16:57:00.382Z,94.76
2022-12-08T17:00:02.774Z,94.42
2022-12-08T17:03:06.171Z,94.46
2022-12-08T17:06:13.090Z,94.48
2022-12-08T17:09:15.236Z,94.80
2022-12-08T17:12:18.085Z,94.45
2022-12-08T17:15:22.524Z,94.31
2022-12-08T17:18:24.419Z,94.43
2022-12-08T17:21:26.278Z,94.29
2022-12-08T17:24:29.581Z,94.50
2022-12-08T17:27:31.688Z,94.36
2022-12-08T17:30:33.511Z,94.77
2022-12-08T17:33:35.369Z,94.67
2022-12-08T17:36:37.477Z,94.55
2022-12-08T17:39:39.663Z,94.57
2022-12-08T17:42:42.460Z,94.69
2022-12-08T17:45:47.125Z,94.67
2022-12-08T17:48:49.215Z,94.52
2022-12-08T17:51:56.053Z,94.62
2022-12-08T17:54:57.960Z,94.99
2022-12-08T17:58:01.650Z,95.01
2022-12-08T18:01:11.023Z,94.93
2022-12-08T18:04:13.350Z,94.79
2022-12-08T18:07:15.204Z,95.02
2022-12-08T18:10:18.391Z,94.92
2022-12-08T18:13:23.215Z,95.08
2022-12-08T18:16:27.706Z,95.17
2022-12-08T18:19:29.790Z,95.12
2022-12-08T18:22:31.589Z,95.03
2022-12-08T18:25:33.446Z,95.01
2022-12-08T18:28:36.723Z,95.25
2022-12-08T18:31:38.578Z,95.05
2022-12-08T18:34:40.433Z,95.23
2022-12-08T18:37:43.122Z,95.50
2022-12-08T18:40:44.956Z,95.33
2022-12-08T18:43:47.144Z,95.42
2022-12-08T18:46:49.210Z,95.79
2022-12-08T18:49:51.053Z,95.45
2022-12-08T18:52:53.918Z,95.59
2022-12-08T18:55:57.184Z,95.54
2022-12-08T18:59:03.881Z,96.03
2022-12-08T19:02:10.918Z,96.06
2022-12-08T19:05:14.212Z,95.70
2022-12-08T19:08:16.176Z,95.51
2022-12-08T19:11:26.950Z,95.57
2022-12-08T19:14:30.497Z,96.08
2022-12-08T19:17:32.359Z,95.87
2022-12-08T19:20:34.215Z,95.77
2022-12-08T19:23:36.440Z,95.71
2022-12-08T19:26:39.608Z,95.44
2022-12-08T19:29:42.513Z,95.94
2022-12-08T19:32:47.051Z,96.03
2022-12-08T19:35:52.779Z,95.95
2022-12-08T19:39:15.277Z,96.00
2022-12-08T19:42:38.489Z,96.12
2022-12-08T19:45:40.645Z,95.97
2022-12-08T19:48:42.788Z,95.61
2022-12-08T19:51:44.634Z,95.66
2022-12-08T19:54:47.350Z,95.79
2022-12-08T19:57:50.401Z,95.73
2022-12-08T20:00:52.163Z,95.64
2022-12-08T20:03:54.133Z,95.96
2022-12-08T20:06:56.849Z,96.01
2022-12-08T20:09:58.782Z,95.66
2022-12-08T20:13:20.153Z,96.03
2022-12-08T20:16:24.203Z,95.75
2022-12-08T20:19:26.431Z,95.51
2022-12-08T20:22:28.400Z,95.63
2022-12-08T20:25:30.392Z,95.88
2022-12-08T20:28:35.001Z,95.63
2022-12-08T20:31:36.914Z,95.80
2022-12-08T20:34:38.858Z,95.73
2022-12-08T20:37:40.747Z,95.85
2022-12-08T20:40:44.131Z,95.64
2022-12-08T20:43:47.546Z,96.28
2022-12-08T20:46:49.946Z,96.13
2022-12-08T20:49:52.399Z,95.94
2022-12-08T20:52:54.542Z,96.09
2022-12-08T20:55:56.583Z,96.18
2022-12-08T20:58:59.235Z,96.00
2022-12-08T21:02:01.313Z,96.01
2022-12-08T21:05:05.149Z,95.93
2022-12-08T21:08:07.542Z,96.14
2022-12-08T21:11:10.321Z,96.52
2022-12-08T21:14:12.300Z,96.54
2022-12-08T21:17:14.284Z,96.30
2022-12-08T21:20:16.637Z,96.78
2022-12-08T21:23:19.234Z,96.79
2022-12-08T21:26:25.965Z,96.71
2022-12-08T21:29:28.083Z,96.67
2022-12-08T21:32:30.780Z,96.65
2022-12-08T21:35:33.189Z,96.84
2022-12-08T21:38:38.851Z,96.69
2022-12-08T21:41:59.532Z,96.54
2022-12-08T21:45:04.589Z,96.77
2022-12-08T21:48:11.964Z,97.02
2022-12-08T21:51:14.286Z,96.93
2022-12-08T21:54:19.059Z,96.99
2022-12-08T21:57:21.534Z,97.09
2022-12-08T22:00:24.244Z,97.15
2022-12-08T22:03:28.523Z,96.99
2022-12-08T22:06:31.037Z,97.27
2022-12-08T22:09:33.360Z,97.33
2022-12-08T22:12:36.809Z,97.76
2022-12-08T22:15:38.989Z,97.29
2022-12-08T22:18:42.478Z,97.13
2022-12-08T22:21:44.721Z,97.09
2022-12-08T22:24:47.082Z,97.22
2022-12-08T22:27:49.352Z,96.95
2022-12-08T22:30:51.315Z,97.02
2022-12-08T22:33:53.618Z,97.23
2022-12-08T22:36:55.602Z,97.02
2022-12-08T22:39:57.554Z,96.90
2022-12-08T22:42:59.482Z,97.02
2022-12-08T22:46:01.654Z,97.01
2022-12-08T22:49:03.919Z,97.29
2022-12-08T22:52:06.167Z,97.10
2022-12-08T22:55:08.648Z,96.92
2022-12-08T22:58:11.516Z,96.89
2022-12-08T23:01:40.062Z,96.85
2022-12-08T23:04:42.261Z,96.91
2022-12-08T23:07:44.664Z,96.81
2022-12-08T23:10:47.801Z,96.74
2022-12-08T23:13:49.574Z,96.81
2022-12-08T23:16:51.744Z,96.77
2022-12-08T23:19:53.737Z,96.49
2022-12-08T23:22:55.540Z,96.42
2022-12-08T23:25:57.389Z,96.29
2022-12-08T23:29:00.077Z,96.28
2022-12-08T23:32:02.029Z,96.38
2022-12-08T23:35:05.053Z,96.44
2022-12-08T23:38:07.092Z,96.16
2022-12-08T23:41:11.855Z,96.26
2022-12-08T23:44:13.687Z,96.39
2022-12-08T23:47:15.998Z,96.59
2022-12-08T23:50:17.930Z,96.78
2022-12-08T23:53:19.905Z,96.82
2022-12-08T23:56:23.263Z,96.83
2022-12-08T23:59:31.633Z,96.74
